sensor_id;sensor_type;location;lat;lon;timestamp;pressure;altitude;pressure_sealevel;temperature;humidity
77235;BME280;66253;50.526;14.974;2023-04-12T00:11:41;98846.41;;;1.64;80.82
77235;BME280;66253;50.526;14.974;2023-04-12T00:23:01;98844.38;;;1.52;81.24
77235;BME280;66253;50.526;14.974;2023-04-12T00:26:48;98837.45;;;1.47;81.36
77235;BME280;66253;50.526;14.974;2023-04-12T00:41:20;98795.99;;;1.23;81.10
77235;BME280;66253;50.526;14.974;2023-04-12T03:10:14;98702.06;;;0.14;84.68
77235;BME280;66253;50.526;14.974;2023-04-12T03:17:37;98696.64;;;0.17;84.57
77235;BME280;66253;50.526;14.974;2023-04-12T03:21:51;98699.69;;;0.15;84.60
77235;BME280;66253;50.526;14.974;2023-04-12T03:29:07;98689.98;;;0.06;84.39
77235;BME280;66253;50.526;14.974;2023-04-12T03:36:37;98690.39;;;0.02;84.37
77235;BME280;66253;50.526;14.974;2023-04-12T03:39:40;98682.86;;;-0.06;84.15
77235;BME280;66253;50.526;14.974;2023-04-12T03:50:05;98681.23;;;-0.09;84.59
77235;BME280;66253;50.526;14.974;2023-04-12T04:34:17;98679.62;;;-0.04;84.29
77235;BME280;66253;50.526;14.974;2023-04-12T05:55:23;98664.00;;;0.41;85.67
77235;BME280;66253;50.526;14.974;2023-04-12T06:14:13;98647.92;;;0.79;85.36
77235;BME280;66253;50.526;14.974;2023-04-12T07:09:12;98591.70;;;2.37;84.18
77235;BME280;66253;50.526;14.974;2023-04-12T07:15:25;98584.65;;;2.55;83.60
77235;BME280;66253;50.526;14.974;2023-04-12T07:26:01;98573.84;;;2.76;83.27
77235;BME280;66253;50.526;14.974;2023-04-12T08:03:53;98545.59;;;4.97;80.85
77235;BME280;66253;50.526;14.974;2023-04-12T08:10:31;98533.66;;;5.33;80.65
77235;BME280;66253;50.526;14.974;2023-04-12T08:13:17;98544.57;;;5.54;80.49
77235;BME280;66253;50.526;14.974;2023-04-12T08:19:51;98530.76;;;5.70;79.48
77235;BME280;66253;50.526;14.974;2023-04-12T08:26:26;98515.70;;;6.06;79.25
77235;BME280;66253;50.526;14.974;2023-04-12T08:29:08;98509.80;;;6.19;78.84
77235;BME280;66253;50.526;14.974;2023-04-12T08:35:00;98503.02;;;6.56;79.50
77235;BME280;66253;50.526;14.974;2023-04-12T08:40:52;98493.51;;;7.01;78.53
77235;BME280;66253;50.526;14.974;2023-04-12T08:43:36;98487.86;;;7.21;78.33
77235;BME280;66253;50.526;14.974;2023-04-12T08:46:13;98482.70;;;7.42;78.13
77235;BME280;66253;50.526;14.974;2023-04-12T08:49:15;98480.27;;;7.61;77.32
77235;BME280;66253;50.526;14.974;2023-04-12T08:55:04;98465.60;;;8.04;77.32
77235;BME280;66253;50.526;14.974;2023-04-12T08:57:31;98455.99;;;8.23;76.69
77235;BME280;66253;50.526;14.974;2023-04-12T09:00:03;98454.40;;;8.42;76.69
77235;BME280;66253;50.526;14.974;2023-04-12T09:02:31;98446.68;;;8.54;75.78
77235;BME280;66253;50.526;14.974;2023-04-12T09:05:00;98445.59;;;8.61;75.30
77235;BME280;66253;50.526;14.974;2023-04-12T09:07:30;98440.25;;;8.68;74.77
77235;BME280;66253;50.526;14.974;2023-04-12T09:10:06;98439.04;;;8.74;73.95
77235;BME280;66253;50.526;14.974;2023-04-12T09:12:32;98429.45;;;8.78;73.23
77235;BME280;66253;50.526;14.974;2023-04-12T09:15:12;98425.77;;;8.85;73.03
77235;BME280;66253;50.526;14.974;2023-04-12T09:18:17;98416.86;;;8.94;72.05
77235;BME280;66253;50.526;14.974;2023-04-12T09:20:43;98408.36;;;9.02;72.25
77235;BME280;66253;50.526;14.974;2023-04-12T09:23:39;98388.20;;;9.06;70.97
77235;BME280;66253;50.526;14.974;2023-04-12T09:26:30;98381.75;;;9.08;71.48
77235;BME280;66253;50.526;14.974;2023-04-12T09:29:22;98378.06;;;9.12;70.95
77235;BME280;66253;50.526;14.974;2023-04-12T09:34:55;98377.77;;;9.25;69.98
77235;BME280;66253;50.526;14.974;2023-04-12T09:37:40;98376.95;;;9.32;68.40
77235;BME280;66253;50.526;14.974;2023-04-12T09:40:22;98374.62;;;9.42;68.11
77235;BME280;66253;50.526;14.974;2023-04-12T09:42:57;98364.73;;;9.52;67.93
77235;BME280;66253;50.526;14.974;2023-04-12T09:45:28;98358.83;;;9.62;67.95
77235;BME280;66253;50.526;14.974;2023-04-12T09:48:04;98357.55;;;9.74;67.25
77235;BME280;66253;50.526;14.974;2023-04-12T09:50:31;98362.23;;;9.83;67.41
77235;BME280;66253;50.526;14.974;2023-04-12T09:53:15;98356.05;;;9.96;67.30
77235;BME280;66253;50.526;14.974;2023-04-12T09:55:50;98353.42;;;10.10;65.73
77235;BME280;66253;50.526;14.974;2023-04-12T09:58:18;98349.77;;;10.19;65.93
77235;BME280;66253;50.526;14.974;2023-04-12T10:01:15;98349.59;;;10.29;65.60
77235;BME280;66253;50.526;14.974;2023-04-12T10:04:11;98347.96;;;10.35;64.44
77235;BME280;66253;50.526;14.974;2023-04-12T10:06:46;98349.25;;;10.42;64.36
77235;BME280;66253;50.526;14.974;2023-04-12T10:09:16;98342.98;;;10.46;64.42
77235;BME280;66253;50.526;14.974;2023-04-12T10:11:47;98338.75;;;10.55;65.31
77235;BME280;66253;50.526;14.974;2023-04-12T10:14:16;98335.70;;;10.69;65.98
77235;BME280;66253;50.526;14.974;2023-04-12T10:17:00;98330.23;;;10.81;64.59
77235;BME280;66253;50.526;14.974;2023-04-12T10:19:30;98322.36;;;10.93;64.03
77235;BME280;66253;50.526;14.974;2023-04-12T10:21:58;98314.63;;;11.01;64.45
77235;BME280;66253;50.526;14.974;2023-04-12T10:24:37;98312.30;;;11.12;64.30
77235;BME280;66253;50.526;14.974;2023-04-12T10:27:05;98306.21;;;11.25;64.25
77235;BME280;66253;50.526;14.974;2023-04-12T10:29:34;98302.14;;;11.37;63.15
77235;BME280;66253;50.526;14.974;2023-04-12T10:35:18;98295.06;;;11.49;62.84
77235;BME280;66253;50.526;14.974;2023-04-12T10:38:19;98283.79;;;11.53;62.56
77235;BME280;66253;50.526;14.974;2023-04-12T10:41:20;98283.69;;;11.62;62.80
77235;BME280;66253;50.526;14.974;2023-04-12T10:44:23;98277.15;;;11.76;61.64
77235;BME280;66253;50.526;14.974;2023-04-12T10:46:53;98268.26;;;11.76;58.99
77235;BME280;66253;50.526;14.974;2023-04-12T10:49:22;98260.02;;;11.67;60.68
77235;BME280;66253;50.526;14.974;2023-04-12T10:52:19;98253.09;;;11.68;61.36
77235;BME280;66253;50.526;14.974;2023-04-12T10:54:46;98251.48;;;11.78;61.58
77235;BME280;66253;50.526;14.974;2023-04-12T10:57:44;98242.95;;;11.89;60.54
77235;BME280;66253;50.526;14.974;2023-04-12T11:00:14;98241.59;;;12.01;60.62
77235;BME280;66253;50.526;14.974;2023-04-12T11:03:05;98231.56;;;12.11;59.70
77235;BME280;66253;50.526;14.974;2023-04-12T11:08:22;98218.98;;;12.16;58.69
77235;BME280;66253;50.526;14.974;2023-04-12T11:10:49;98215.88;;;12.14;58.94
77235;BME280;66253;50.526;14.974;2023-04-12T11:13:15;98211.83;;;12.18;59.01
77235;BME280;66253;50.526;14.974;2023-04-12T11:15:43;98209.38;;;12.18;57.73
77235;BME280;66253;50.526;14.974;2023-04-12T11:18:14;98208.60;;;12.20;58.34
77235;BME280;66253;50.526;14.974;2023-04-12T11:20:44;98208.23;;;12.18;56.96
77235;BME280;66253;50.526;14.974;2023-04-12T11:23:12;98207.72;;;12.16;57.18
77235;BME280;66253;50.526;14.974;2023-04-12T11:25:49;98200.85;;;12.14;57.44
77235;BME280;66253;50.526;14.974;2023-04-12T11:28:20;98195.53;;;12.12;57.58
77235;BME280;66253;50.526;14.974;2023-04-12T11:31:01;98194.98;;;12.12;57.36
77235;BME280;66253;50.526;14.974;2023-04-12T11:33:41;98188.60;;;12.13;57.81
77235;BME280;66253;50.526;14.974;2023-04-12T11:36:20;98187.04;;;12.15;57.49
77235;BME280;66253;50.526;14.974;2023-04-12T11:38:50;98184.45;;;12.16;56.46
77235;BME280;66253;50.526;14.974;2023-04-12T11:41:19;98181.51;;;12.11;56.94
77235;BME280;66253;50.526;14.974;2023-04-12T11:43:47;98173.38;;;12.15;57.50
77235;BME280;66253;50.526;14.974;2023-04-12T11:46:25;98169.09;;;12.19;56.84
77235;BME280;66253;50.526;14.974;2023-04-12T11:48:52;98158.74;;;12.25;56.69
77235;BME280;66253;50.526;14.974;2023-04-12T11:51:19;98148.18;;;12.32;57.27
77235;BME280;66253;50.526;14.974;2023-04-12T11:54:09;98145.89;;;12.40;56.31
77235;BME280;66253;50.526;14.974;2023-04-12T11:56:36;98143.80;;;12.44;56.18
77235;BME280;66253;50.526;14.974;2023-04-12T11:59:37;98146.69;;;12.49;55.84
77235;BME280;66253;50.526;14.974;2023-04-12T12:02:06;98136.50;;;12.52;55.01
77235;BME280;66253;50.526;14.974;2023-04-12T12:04:38;98134.19;;;12.55;55.39
77235;BME280;66253;50.526;14.974;2023-04-12T12:07:08;98131.13;;;12.59;55.65
77235;BME280;66253;50.526;14.974;2023-04-12T12:09:42;98128.55;;;12.65;55.06
77235;BME280;66253;50.526;14.974;2023-04-12T12:12:14;98119.27;;;12.68;54.48
77235;BME280;66253;50.526;14.974;2023-04-12T12:14:45;98112.52;;;12.68;54.63
77235;BME280;66253;50.526;14.974;2023-04-12T12:17:29;98105.89;;;12.72;54.91
77235;BME280;66253;50.526;14.974;2023-04-12T12:22:54;98101.20;;;12.75;54.01
77235;BME280;66253;50.526;14.974;2023-04-12T12:25:24;98089.69;;;12.73;54.64
77235;BME280;66253;50.526;14.974;2023-04-12T12:28:11;98086.46;;;12.77;55.52
77235;BME280;66253;50.526;14.974;2023-04-12T12:30:46;98086.65;;;12.83;54.41
77235;BME280;66253;50.526;14.974;2023-04-12T12:33:18;98078.38;;;12.86;54.02
77235;BME280;66253;50.526;14.974;2023-04-12T12:35:44;98076.13;;;12.88;53.92
77235;BME280;66253;50.526;14.974;2023-04-12T12:38:13;98070.59;;;12.89;54.03
77235;BME280;66253;50.526;14.974;2023-04-12T12:40:42;98070.25;;;12.91;53.78
77235;BME280;66253;50.526;14.974;2023-04-12T12:43:23;98060.01;;;12.92;53.41
77235;BME280;66253;50.526;14.974;2023-04-12T12:45:49;98053.74;;;12.93;52.56
77235;BME280;66253;50.526;14.974;2023-04-12T12:48:15;98051.55;;;12.93;52.47
77235;BME280;66253;50.526;14.974;2023-04-12T12:50:49;98041.11;;;12.93;52.94
77235;BME280;66253;50.526;14.974;2023-04-12T12:53:15;98037.16;;;12.99;53.81
77235;BME280;66253;50.526;14.974;2023-04-12T12:55:43;98034.89;;;13.09;52.28
77235;BME280;66253;50.526;14.974;2023-04-12T12:58:14;98037.63;;;13.14;50.32
77235;BME280;66253;50.526;14.974;2023-04-12T13:00:51;98033.98;;;13.12;50.06
77235;BME280;66253;50.526;14.974;2023-04-12T13:03:17;98032.64;;;13.14;50.79
77235;BME280;66253;50.526;14.974;2023-04-12T13:05:45;98030.40;;;13.20;51.21
77235;BME280;66253;50.526;14.974;2023-04-12T13:08:14;98019.83;;;13.26;50.30
77235;BME280;66253;50.526;14.974;2023-04-12T13:10:43;98015.30;;;13.30;50.75
77235;BME280;66253;50.526;14.974;2023-04-12T13:15:51;97998.85;;;13.42;50.94
77235;BME280;66253;50.526;14.974;2023-04-12T13:18:17;97988.38;;;13.48;50.08
77235;BME280;66253;50.526;14.974;2023-04-12T13:20:47;97984.59;;;13.49;49.31
77235;BME280;66253;50.526;14.974;2023-04-12T13:23:13;97975.05;;;13.46;48.98
77235;BME280;66253;50.526;14.974;2023-04-12T13:25:39;97976.30;;;13.45;49.54
77235;BME280;66253;50.526;14.974;2023-04-12T13:28:08;97967.11;;;13.47;48.60
77235;BME280;66253;50.526;14.974;2023-04-12T13:30:36;97961.41;;;13.49;48.54
77235;BME280;66253;50.526;14.974;2023-04-12T13:33:02;97958.64;;;13.51;47.74
77235;BME280;66253;50.526;14.974;2023-04-12T13:35:28;97958.11;;;13.53;47.32
77235;BME280;66253;50.526;14.974;2023-04-12T13:37:55;97958.16;;;13.55;46.34
77235;BME280;66253;50.526;14.974;2023-04-12T13:40:20;97951.44;;;13.57;45.67
77235;BME280;66253;50.526;14.974;2023-04-12T13:42:46;97946.48;;;13.60;45.77
77235;BME280;66253;50.526;14.974;2023-04-12T13:45:12;97944.31;;;13.67;45.81
77235;BME280;66253;50.526;14.974;2023-04-12T13:47:59;97933.88;;;13.77;45.59
77235;BME280;66253;50.526;14.974;2023-04-12T13:50:24;97929.52;;;13.87;45.01
77235;BME280;66253;50.526;14.974;2023-04-12T13:52:50;97920.63;;;13.93;44.52
77235;BME280;66253;50.526;14.974;2023-04-12T13:55:15;97922.55;;;13.98;44.90
77235;BME280;66253;50.526;14.974;2023-04-12T13:57:41;97913.35;;;14.01;44.86
77235;BME280;66253;50.526;14.974;2023-04-12T14:00:11;97919.32;;;14.05;44.95
77235;BME280;66253;50.526;14.974;2023-04-12T14:02:36;97915.70;;;14.07;44.48
77235;BME280;66253;50.526;14.974;2023-04-12T14:05:02;97917.66;;;14.10;44.12
77235;BME280;66253;50.526;14.974;2023-04-12T14:07:28;97915.41;;;14.14;43.95
77235;BME280;66253;50.526;14.974;2023-04-12T14:09:54;97915.48;;;14.13;43.80
77235;BME280;66253;50.526;14.974;2023-04-12T14:12:22;97914.58;;;14.14;43.69
77235;BME280;66253;50.526;14.974;2023-04-12T14:14:47;97912.09;;;14.15;43.55
77235;BME280;66253;50.526;14.974;2023-04-12T14:17:13;97907.08;;;14.15;43.87
77235;BME280;66253;50.526;14.974;2023-04-12T14:19:41;97902.17;;;14.18;43.51
77235;BME280;66253;50.526;14.974;2023-04-12T14:22:14;97896.15;;;14.20;43.23
77235;BME280;66253;50.526;14.974;2023-04-12T14:24:40;97895.38;;;14.21;43.53
77235;BME280;66253;50.526;14.974;2023-04-12T14:27:09;97894.23;;;14.20;43.07
77235;BME280;66253;50.526;14.974;2023-04-12T14:29:37;97893.05;;;14.18;43.72
77235;BME280;66253;50.526;14.974;2023-04-12T14:32:07;97890.46;;;14.16;43.03
77235;BME280;66253;50.526;14.974;2023-04-12T14:34:32;97896.69;;;14.14;42.65
77235;BME280;66253;50.526;14.974;2023-04-12T14:36:58;97885.75;;;14.12;42.90
77235;BME280;66253;50.526;14.974;2023-04-12T14:39:24;97883.70;;;14.13;43.08
77235;BME280;66253;50.526;14.974;2023-04-12T14:41:52;97880.02;;;14.12;42.69
77235;BME280;66253;50.526;14.974;2023-04-12T14:44:21;97879.33;;;14.08;42.56
77235;BME280;66253;50.526;14.974;2023-04-12T14:46:52;97878.04;;;14.06;42.57
77235;BME280;66253;50.526;14.974;2023-04-12T14:49:27;97873.84;;;14.03;42.42
77235;BME280;66253;50.526;14.974;2023-04-12T14:51:55;97867.81;;;14.01;42.28
77235;BME280;66253;50.526;14.974;2023-04-12T14:54:24;97865.08;;;14.01;42.56
77235;BME280;66253;50.526;14.974;2023-04-12T14:56:50;97863.09;;;14.02;43.26
77235;BME280;66253;50.526;14.974;2023-04-12T14:59:16;97860.90;;;14.05;43.22
77235;BME280;66253;50.526;14.974;2023-04-12T15:01:42;97860.33;;;14.08;43.06
77235;BME280;66253;50.526;14.974;2023-04-12T15:04:07;97858.64;;;14.12;43.08
77235;BME280;66253;50.526;14.974;2023-04-12T15:06:33;97856.98;;;14.11;42.60
77235;BME280;66253;50.526;14.974;2023-04-12T15:09:04;97854.83;;;14.10;43.17
77235;BME280;66253;50.526;14.974;2023-04-12T15:11:30;97860.17;;;14.13;43.71
77235;BME280;66253;50.526;14.974;2023-04-12T15:14:00;97854.59;;;14.13;42.84
77235;BME280;66253;50.526;14.974;2023-04-12T15:16:33;97850.98;;;14.09;43.25
77235;BME280;66253;50.526;14.974;2023-04-12T15:18:59;97845.31;;;14.07;43.54
77235;BME280;66253;50.526;14.974;2023-04-12T15:21:25;97837.38;;;14.04;42.63
77235;BME280;66253;50.526;14.974;2023-04-12T15:23:52;97837.23;;;14.02;43.36
77235;BME280;66253;50.526;14.974;2023-04-12T15:26:20;97838.74;;;14.00;43.25
77235;BME280;66253;50.526;14.974;2023-04-12T15:28:46;97835.23;;;13.99;42.18
77235;BME280;66253;50.526;14.974;2023-04-12T15:31:14;97840.61;;;13.97;42.35
77235;BME280;66253;50.526;14.974;2023-04-12T15:33:40;97836.81;;;13.93;43.03
77235;BME280;66253;50.526;14.974;2023-04-12T15:36:07;97836.05;;;13.90;43.02
77235;BME280;66253;50.526;14.974;2023-04-12T15:38:41;97840.39;;;13.88;43.11
77235;BME280;66253;50.526;14.974;2023-04-12T15:41:07;97840.53;;;13.84;43.09
77235;BME280;66253;50.526;14.974;2023-04-12T15:43:33;97845.21;;;13.80;43.27
77235;BME280;66253;50.526;14.974;2023-04-12T15:46:04;97845.15;;;13.77;44.06
77235;BME280;66253;50.526;14.974;2023-04-12T15:48:30;97840.35;;;13.75;43.78
77235;BME280;66253;50.526;14.974;2023-04-12T15:50:58;97833.22;;;13.74;44.10
77235;BME280;66253;50.526;14.974;2023-04-12T15:53:28;97829.98;;;13.74;44.06
77235;BME280;66253;50.526;14.974;2023-04-12T15:56:02;97825.69;;;13.74;43.89
77235;BME280;66253;50.526;14.974;2023-04-12T15:58:36;97824.17;;;13.73;44.29
77235;BME280;66253;50.526;14.974;2023-04-12T16:01:11;97823.14;;;13.73;43.99
77235;BME280;66253;50.526;14.974;2023-04-12T16:03:37;97817.02;;;13.73;43.87
77235;BME280;66253;50.526;14.974;2023-04-12T16:06:02;97814.91;;;13.74;43.93
77235;BME280;66253;50.526;14.974;2023-04-12T16:08:29;97810.77;;;13.74;43.93
77235;BME280;66253;50.526;14.974;2023-04-12T16:11:04;97802.86;;;13.75;43.44
77235;BME280;66253;50.526;14.974;2023-04-12T16:13:30;97796.73;;;13.73;44.02
77235;BME280;66253;50.526;14.974;2023-04-12T16:15:56;97803.59;;;13.72;44.04
77235;BME280;66253;50.526;14.974;2023-04-12T16:18:22;97805.62;;;13.70;44.52
77235;BME280;66253;50.526;14.974;2023-04-12T16:20:48;97808.89;;;13.67;44.64
77235;BME280;66253;50.526;14.974;2023-04-12T16:23:14;97811.30;;;13.60;44.09
77235;BME280;66253;50.526;14.974;2023-04-12T16:25:41;97806.04;;;13.54;45.03
77235;BME280;66253;50.526;14.974;2023-04-12T16:28:06;97803.08;;;13.49;44.76
77235;BME280;66253;50.526;14.974;2023-04-12T16:30:33;97802.22;;;13.43;44.75
77235;BME280;66253;50.526;14.974;2023-04-12T16:32:59;97801.40;;;13.37;44.97
77235;BME280;66253;50.526;14.974;2023-04-12T16:35:25;97799.77;;;13.30;44.82
77235;BME280;66253;50.526;14.974;2023-04-12T16:37:51;97800.31;;;13.24;44.44
77235;BME280;66253;50.526;14.974;2023-04-12T16:40:17;97800.88;;;13.18;44.84
77235;BME280;66253;50.526;14.974;2023-04-12T16:43:05;97794.38;;;13.12;45.19
77235;BME280;66253;50.526;14.974;2023-04-12T16:45:34;97789.57;;;13.06;45.45
77235;BME280;66253;50.526;14.974;2023-04-12T16:48:00;97787.30;;;13.01;46.11
77235;BME280;66253;50.526;14.974;2023-04-12T16:50:29;97792.02;;;12.96;46.12
77235;BME280;66253;50.526;14.974;2023-04-12T16:53:02;97788.70;;;12.90;46.39
77235;BME280;66253;50.526;14.974;2023-04-12T16:55:28;97787.15;;;12.85;46.67
77235;BME280;66253;50.526;14.974;2023-04-12T16:57:54;97786.75;;;12.80;46.91
77235;BME280;66253;50.526;14.974;2023-04-12T17:00:22;97792.77;;;12.76;47.53
77235;BME280;66253;50.526;14.974;2023-04-12T17:02:51;97799.55;;;12.70;47.59
77235;BME280;66253;50.526;14.974;2023-04-12T17:05:18;97803.54;;;12.66;47.79
77235;BME280;66253;50.526;14.974;2023-04-12T17:07:49;97802.88;;;12.62;48.09
77235;BME280;66253;50.526;14.974;2023-04-12T17:10:16;97799.69;;;12.57;48.49
77235;BME280;66253;50.526;14.974;2023-04-12T17:12:46;97799.68;;;12.53;48.91
77235;BME280;66253;50.526;14.974;2023-04-12T17:15:16;97799.32;;;12.50;49.04
77235;BME280;66253;50.526;14.974;2023-04-12T17:17:45;97804.67;;;12.45;49.04
77235;BME280;66253;50.526;14.974;2023-04-12T17:20:11;97805.46;;;12.40;49.19
77235;BME280;66253;50.526;14.974;2023-04-12T17:22:37;97801.58;;;12.35;49.49
77235;BME280;66253;50.526;14.974;2023-04-12T17:25:04;97796.52;;;12.30;49.58
77235;BME280;66253;50.526;14.974;2023-04-12T17:27:32;97791.29;;;12.25;49.35
77235;BME280;66253;50.526;14.974;2023-04-12T17:30:06;97784.69;;;12.20;49.24
77235;BME280;66253;50.526;14.974;2023-04-12T17:32:33;97781.77;;;12.16;49.66
77235;BME280;66253;50.526;14.974;2023-04-12T17:34:59;97778.95;;;12.11;49.97
77235;BME280;66253;50.526;14.974;2023-04-12T17:37:25;97773.81;;;12.08;50.51
77235;BME280;66253;50.526;14.974;2023-04-12T17:39:52;97777.09;;;12.03;50.81
77235;BME280;66253;50.526;14.974;2023-04-12T17:42:18;97785.73;;;11.98;50.65
77235;BME280;66253;50.526;14.974;2023-04-12T17:44:52;97789.16;;;11.94;50.94
77235;BME280;66253;50.526;14.974;2023-04-12T17:47:18;97786.63;;;11.89;51.14
77235;BME280;66253;50.526;14.974;2023-04-12T17:49:46;97782.90;;;11.85;51.17
77235;BME280;66253;50.526;14.974;2023-04-12T17:52:20;97788.35;;;11.81;51.43
77235;BME280;66253;50.526;14.974;2023-04-12T17:54:46;97790.95;;;11.76;51.31
77235;BME280;66253;50.526;14.974;2023-04-12T17:57:12;97791.98;;;11.74;51.32
77235;BME280;66253;50.526;14.974;2023-04-12T17:59:40;97792.81;;;11.72;51.44
77235;BME280;66253;50.526;14.974;2023-04-12T18:02:06;97793.70;;;11.70;51.24
77235;BME280;66253;50.526;14.974;2023-04-12T18:04:32;97796.84;;;11.67;51.40
77235;BME280;66253;50.526;14.974;2023-04-12T18:07:03;97796.39;;;11.64;51.47
77235;BME280;66253;50.526;14.974;2023-04-12T18:09:29;97794.91;;;11.62;51.81
77235;BME280;66253;50.526;14.974;2023-04-12T18:11:55;97796.42;;;11.60;52.07
77235;BME280;66253;50.526;14.974;2023-04-12T18:14:21;97797.84;;;11.57;51.68
77235;BME280;66253;50.526;14.974;2023-04-12T18:16:48;97809.45;;;11.56;51.71
77235;BME280;66253;50.526;14.974;2023-04-12T18:19:15;97813.43;;;11.52;51.95
77235;BME280;66253;50.526;14.974;2023-04-12T18:21:43;97812.73;;;11.50;52.05
77235;BME280;66253;50.526;14.974;2023-04-12T18:24:13;97809.55;;;11.48;52.14
77235;BME280;66253;50.526;14.974;2023-04-12T18:26:41;97805.96;;;11.46;52.31
77235;BME280;66253;50.526;14.974;2023-04-12T18:29:06;97803.55;;;11.44;52.51
77235;BME280;66253;50.526;14.974;2023-04-12T18:31:38;97798.77;;;11.42;52.38
77235;BME280;66253;50.526;14.974;2023-04-12T18:34:07;97788.46;;;11.40;52.78
77235;BME280;66253;50.526;14.974;2023-04-12T18:36:39;97789.10;;;11.39;52.86
77235;BME280;66253;50.526;14.974;2023-04-12T18:39:06;97791.40;;;11.36;52.84
77235;BME280;66253;50.526;14.974;2023-04-12T18:41:36;97798.31;;;11.33;53.09
77235;BME280;66253;50.526;14.974;2023-04-12T18:44:05;97800.95;;;11.30;53.24
77235;BME280;66253;50.526;14.974;2023-04-12T18:46:36;97800.23;;;11.28;53.22
77235;BME280;66253;50.526;14.974;2023-04-12T18:49:02;97795.90;;;11.25;52.99
77235;BME280;66253;50.526;14.974;2023-04-12T18:51:34;97800.13;;;11.23;53.37
77235;BME280;66253;50.526;14.974;2023-04-12T18:54:00;97795.81;;;11.21;53.44
77235;BME280;66253;50.526;14.974;2023-04-12T18:56:26;97796.83;;;11.20;53.67
77235;BME280;66253;50.526;14.974;2023-04-12T18:58:57;97795.83;;;11.17;54.04
77235;BME280;66253;50.526;14.974;2023-04-12T19:01:29;97797.54;;;11.15;54.45
77235;BME280;66253;50.526;14.974;2023-04-12T19:03:58;97800.57;;;11.11;54.40
77235;BME280;66253;50.526;14.974;2023-04-12T19:06:28;97802.29;;;11.09;54.83
77235;BME280;66253;50.526;14.974;2023-04-12T19:08:54;97806.02;;;11.05;54.96
77235;BME280;66253;50.526;14.974;2023-04-12T19:11:23;97807.26;;;11.00;55.13
77235;BME280;66253;50.526;14.974;2023-04-12T19:13:52;97806.58;;;10.96;55.24
77235;BME280;66253;50.526;14.974;2023-04-12T19:16:27;97810.26;;;10.93;55.54
77235;BME280;66253;50.526;14.974;2023-04-12T19:18:54;97809.64;;;10.90;55.45
77235;BME280;66253;50.526;14.974;2023-04-12T19:21:26;97810.66;;;10.88;55.51
77235;BME280;66253;50.526;14.974;2023-04-12T19:23:52;97812.27;;;10.87;56.07
77235;BME280;66253;50.526;14.974;2023-04-12T19:26:21;97807.59;;;10.83;56.38
77235;BME280;66253;50.526;14.974;2023-04-12T19:28:51;97807.36;;;10.80;56.23
77235;BME280;66253;50.526;14.974;2023-04-12T19:31:19;97799.38;;;10.77;55.83
77235;BME280;66253;50.526;14.974;2023-04-12T19:33:47;97797.88;;;10.74;56.05
77235;BME280;66253;50.526;14.974;2023-04-12T19:36:13;97792.76;;;10.72;56.35
77235;BME280;66253;50.526;14.974;2023-04-12T19:38:47;97787.92;;;10.71;56.20
77235;BME280;66253;50.526;14.974;2023-04-12T19:41:26;97786.25;;;10.68;56.77
77235;BME280;66253;50.526;14.974;2023-04-12T19:44:00;97785.90;;;10.66;56.89
77235;BME280;66253;50.526;14.974;2023-04-12T19:46:31;97788.77;;;10.63;57.15
77235;BME280;66253;50.526;14.974;2023-04-12T19:49:06;97787.98;;;10.59;56.98
77235;BME280;66253;50.526;14.974;2023-04-12T19:51:39;97785.89;;;10.57;56.88
77235;BME280;66253;50.526;14.974;2023-04-12T19:54:07;97783.54;;;10.55;56.70
77235;BME280;66253;50.526;14.974;2023-04-12T19:56:54;97784.79;;;10.52;57.06
77235;BME280;66253;50.526;14.974;2023-04-12T19:59:22;97784.30;;;10.49;57.34
77235;BME280;66253;50.526;14.974;2023-04-12T20:02:34;97780.30;;;10.46;57.17
77235;BME280;66253;50.526;14.974;2023-04-12T20:05:10;97770.77;;;10.44;56.76
77235;BME280;66253;50.526;14.974;2023-04-12T20:08:16;97763.70;;;10.42;56.75
77235;BME280;66253;50.526;14.974;2023-04-12T20:10:50;97760.42;;;10.41;56.75
77235;BME280;66253;50.526;14.974;2023-04-12T20:13:28;97761.40;;;10.39;56.18
77235;BME280;66253;50.526;14.974;2023-04-12T20:15:57;97766.58;;;10.38;56.22
77235;BME280;66253;50.526;14.974;2023-04-12T20:18:28;97767.70;;;10.37;56.22
77235;BME280;66253;50.526;14.974;2023-04-12T20:20:56;97767.27;;;10.36;56.18
77235;BME280;66253;50.526;14.974;2023-04-12T20:23:26;97760.23;;;10.34;55.89
77235;BME280;66253;50.526;14.974;2023-04-12T20:26:12;97762.52;;;10.33;56.04
77235;BME280;66253;50.526;14.974;2023-04-12T20:28:40;97767.40;;;10.32;55.61
77235;BME280;66253;50.526;14.974;2023-04-12T20:31:22;97766.94;;;10.31;55.94
77235;BME280;66253;50.526;14.974;2023-04-12T20:33:52;97763.75;;;10.31;55.56
77235;BME280;66253;50.526;14.974;2023-04-12T20:36:26;97765.85;;;10.30;55.51
77235;BME280;66253;50.526;14.974;2023-04-12T20:38:56;97767.27;;;10.29;55.59
77235;BME280;66253;50.526;14.974;2023-04-12T20:41:25;97766.50;;;10.28;55.78
77235;BME280;66253;50.526;14.974;2023-04-12T20:43:52;97764.13;;;10.28;55.49
77235;BME280;66253;50.526;14.974;2023-04-12T20:46:26;97764.00;;;10.27;55.69
77235;BME280;66253;50.526;14.974;2023-04-12T20:48:57;97759.64;;;10.27;55.48
77235;BME280;66253;50.526;14.974;2023-04-12T20:51:23;97751.48;;;10.26;55.95
77235;BME280;66253;50.526;14.974;2023-04-12T20:54:02;97747.34;;;10.24;56.03
77235;BME280;66253;50.526;14.974;2023-04-12T20:56:28;97746.54;;;10.24;55.94
77235;BME280;66253;50.526;14.974;2023-04-12T20:59:10;97743.28;;;10.21;56.25
77235;BME280;66253;50.526;14.974;2023-04-12T21:01:36;97741.71;;;10.20;56.05
77235;BME280;66253;50.526;14.974;2023-04-12T21:04:09;97744.48;;;10.17;56.28
77235;BME280;66253;50.526;14.974;2023-04-12T21:06:39;97744.45;;;10.15;56.59
77235;BME280;66253;50.526;14.974;2023-04-12T21:09:05;97744.30;;;10.13;56.16
77235;BME280;66253;50.526;14.974;2023-04-12T21:11:35;97747.86;;;10.10;56.42